Terminal Aerodrome Forecast
Issued by NWS Memphis, TN

Home | Current Version | Previous Version | Text Only | Print | Product List | Glossary On
Versions: 1 2 3 4 5 6 7 8 9 10 11 12 13
683
FTUS44 KMEG 190520
TAFMKL
TAF
KMKL 190520Z 1906/2006 31012G17KT P6SM FEW250
     FM191000 32009KT P6SM FEW250
     FM191400 34012G19KT P6SM SCT040 SCT250
     FM191700 35012G19KT P6SM BKN040
     FM200100 02006KT P6SM SCT040 SCT250=

USA.gov is the U.S. government's official web portal to all federal, state and local government web resources and services.